Time;durP1;ratioP1;P1;durP2;ratioP2;P2;SDS_P1;SDS_P2;PMS_P1;PMS_P2;Temp;Humidity;BMP_temperature;BMP_pressure;BME280_temperature;BME280_humidity;BME280_pressure;Samples;Min_cycle;Max_cycle;Signal;HPM_P1;HPM_P2
2022/07/17 00:02:16;;;;;;;10.05;5.90;;;11.20;99.90;;;;;;5061098;28;20070;-60
2022/07/17 00:04:42;;;;;;;8.82;5.68;;;11.20;99.90;;;;;;5067501;28;20052;-60
2022/07/17 00:07:08;;;;;;;9.13;5.05;;;11.10;99.90;;;;;;5065841;28;20399;-59
2022/07/17 00:09:33;;;;;;;8.73;5.63;;;11.10;99.90;;;;;;5058978;28;20016;-59
2022/07/17 00:11:59;;;;;;;7.55;5.30;;;11.10;99.90;;;;;;5057029;28;20082;-60
2022/07/17 00:14:24;;;;;;;8.05;5.30;;;11.00;99.90;;;;;;5064160;28;20028;-60
2022/07/17 00:16:51;;;;;;;7.35;4.57;;;11.00;99.90;;;;;;5067942;28;20028;-59
2022/07/17 00:19:17;;;;;;;12.02;3.35;;;11.00;99.90;;;;;;5063856;28;20051;-60
2022/07/17 00:21:43;;;;;;;9.48;2.80;;;11.00;99.90;;;;;;5060314;28;20639;-60
2022/07/17 00:24:08;;;;;;;6.88;2.63;;;10.90;99.90;;;;;;5064354;28;20108;-59
2022/07/17 00:26:34;;;;;;;4.10;1.98;;;10.90;99.90;;;;;;5062368;28;20436;-59
2022/07/17 00:29:00;;;;;;;5.30;2.13;;;10.90;99.90;;;;;;5059442;28;20029;-60
2022/07/17 00:31:25;;;;;;;3.22;2.58;;;10.90;99.90;;;;;;5061276;28;20475;-59
2022/07/17 00:33:51;;;;;;;4.05;2.75;;;10.80;99.90;;;;;;5056784;28;20036;-59
2022/07/17 00:36:16;;;;;;;10.68;4.95;;;10.80;99.90;;;;;;5058964;28;20028;-59
2022/07/17 00:38:42;;;;;;;6.53;4.47;;;10.80;99.90;;;;;;5061855;28;20024;-59
2022/07/17 00:41:08;;;;;;;8.73;5.70;;;10.80;99.90;;;;;;5059105;28;20037;-59
2022/07/17 00:43:33;;;;;;;8.25;5.18;;;10.80;99.90;;;;;;5058232;28;20196;-55
2022/07/17 00:46:01;;;;;;;9.95;5.50;;;10.80;99.90;;;;;;5065868;28;20032;-58
2022/07/17 00:48:27;;;;;;;6.68;4.30;;;10.80;99.90;;;;;;5060817;28;20020;-57
2022/07/17 00:50:54;;;;;;;8.80;4.85;;;10.70;99.90;;;;;;5064310;28;20025;-59
2022/07/17 00:53:20;;;;;;;8.27;4.30;;;10.70;99.90;;;;;;5043658;28;20386;-61
2022/07/17 00:55:47;;;;;;;4.80;3.90;;;10.70;99.90;;;;;;5121104;22;20051;-55
2022/07/17 00:58:24;;;;;;;8.38;5.38;;;10.70;99.90;;;;;;5086228;28;20016;-58
2022/07/17 01:00:51;;;;;;;6.43;5.22;;;10.70;99.90;;;;;;5074620;28;20039;-60
2022/07/17 01:03:19;;;;;;;8.45;6.35;;;10.60;99.90;;;;;;5075779;28;20036;-55
2022/07/17 01:05:45;;;;;;;10.55;5.35;;;10.60;99.90;;;;;;5067360;28;20036;-57
2022/07/17 01:08:11;;;;;;;8.13;4.30;;;10.60;99.90;;;;;;5063200;28;20363;-60
2022/07/17 01:10:38;;;;;;;6.65;3.63;;;10.50;99.90;;;;;;5060723;28;20033;-60
2022/07/17 01:13:04;;;;;;;6.85;3.22;;;10.50;99.90;;;;;;5045209;28;20493;-60
2022/07/17 01:15:31;;;;;;;7.30;3.72;;;10.50;99.90;;;;;;5066111;28;20124;-58
2022/07/17 01:17:57;;;;;;;3.53;2.63;;;10.50;99.90;;;;;;5065543;28;20067;-60
2022/07/17 01:20:23;;;;;;;8.05;2.65;;;10.50;99.90;;;;;;5065200;28;20033;-61
2022/07/17 01:22:50;;;;;;;6.35;2.92;;;10.50;99.90;;;;;;5065881;28;20056;-61
2022/07/17 01:25:20;;;;;;;6.93;2.38;;;10.50;99.90;;;;;;5038924;28;20023;-61
2022/07/17 01:27:46;;;;;;;4.85;2.35;;;10.50;99.90;;;;;;5058102;28;20027;-58
2022/07/17 01:30:11;;;;;;;5.03;2.28;;;10.50;99.90;;;;;;5062388;28;20107;-59
2022/07/17 01:32:40;;;;;;;3.45;2.70;;;10.50;99.90;;;;;;5046604;28;20438;-58
2022/07/17 01:35:08;;;;;;;4.70;2.10;;;10.50;99.90;;;;;;5066333;28;20037;-60
2022/07/17 01:37:35;;;;;;;2.55;2.08;;;10.50;99.90;;;;;;5058222;28;20029;-60
2022/07/17 01:40:00;;;;;;;5.38;2.45;;;10.60;99.90;;;;;;5063607;28;20436;-60
2022/07/17 01:42:27;;;;;;;5.97;2.60;;;10.60;99.90;;;;;;5056994;28;20026;-60
2022/07/17 01:44:54;;;;;;;6.07;2.47;;;10.60;99.90;;;;;;5042527;28;20021;-60
2022/07/17 01:47:20;;;;;;;4.45;2.13;;;10.60;99.90;;;;;;5071164;28;20025;-58
2022/07/17 01:49:48;;;;;;;6.10;1.92;;;10.60;99.90;;;;;;5071879;28;20036;-58
2022/07/17 01:52:14;;;;;;;6.10;2.35;;;10.70;99.90;;;;;;5070705;28;20055;-60
2022/07/17 01:54:40;;;;;;;3.67;2.10;;;10.70;99.90;;;;;;5071338;28;20498;-60
2022/07/17 01:57:06;;;;;;;4.40;2.30;;;10.70;99.90;;;;;;5071072;28;20071;-59
2022/07/17 01:59:31;;;;;;;4.85;1.80;;;10.70;99.90;;;;;;5053767;28;20056;-60
2022/07/17 02:01:57;;;;;;;6.80;3.08;;;10.70;99.90;;;;;;5048728;28;20121;-60
2022/07/17 02:04:22;;;;;;;3.40;1.73;;;10.70;99.90;;;;;;5068126;28;20028;-58
2022/07/17 02:06:48;;;;;;;3.30;1.80;;;10.80;99.90;;;;;;5068278;28;20711;-61
2022/07/17 02:09:14;;;;;;;6.78;2.60;;;10.80;99.90;;;;;;5071787;28;20110;-60
2022/07/17 02:11:39;;;;;;;4.82;2.00;;;10.80;99.90;;;;;;5066807;28;20028;-61
2022/07/17 02:14:05;;;;;;;4.53;1.88;;;10.80;99.90;;;;;;5070087;28;20505;-58
2022/07/17 02:16:30;;;;;;;3.58;2.10;;;10.80;99.90;;;;;;5066527;28;20479;-61
2022/07/17 02:18:56;;;;;;;3.03;2.35;;;10.80;99.90;;;;;;5051171;28;20032;-55
2022/07/17 02:21:21;;;;;;;4.93;2.00;;;10.80;99.90;;;;;;5069689;28;20458;-60
2022/07/17 02:23:47;;;;;;;6.40;1.90;;;10.80;99.90;;;;;;5053677;28;20020;-58
2022/07/17 02:26:13;;;;;;;3.90;1.92;;;10.80;99.90;;;;;;5064877;28;20105;-61
2022/07/17 02:28:38;;;;;;;5.95;2.35;;;10.90;99.90;;;;;;5071070;28;20064;-59
2022/07/17 02:31:04;;;;;;;5.28;2.40;;;10.90;99.90;;;;;;5064011;28;20083;-57
2022/07/17 02:33:29;;;;;;;6.90;2.33;;;10.90;99.90;;;;;;5070431;28;20031;-59
2022/07/17 02:35:55;;;;;;;3.72;2.67;;;11.00;99.90;;;;;;5069629;28;20036;-59
2022/07/17 02:38:20;;;;;;;3.78;2.25;;;11.00;99.90;;;;;;5059751;28;20446;-59
2022/07/17 02:40:46;;;;;;;4.25;2.42;;;11.00;99.90;;;;;;5066062;28;20024;-59
2022/07/17 02:43:12;;;;;;;6.15;1.90;;;11.00;99.90;;;;;;5070621;28;20029;-59
2022/07/17 02:45:37;;;;;;;6.93;2.60;;;11.10;99.90;;;;;;5071008;28;20028;-59
2022/07/17 02:48:03;;;;;;;4.80;2.42;;;11.10;99.90;;;;;;5064782;28;20044;-59
2022/07/17 02:50:29;;;;;;;8.18;2.80;;;11.10;99.90;;;;;;5070000;28;20024;-57
2022/07/17 02:52:54;;;;;;;3.88;2.15;;;11.20;99.90;;;;;;5069792;28;20025;-57
2022/07/17 02:55:21;;;;;;;5.60;2.33;;;11.20;99.90;;;;;;5065950;28;20120;-60
2022/07/17 02:57:47;;;;;;;3.20;1.90;;;11.20;99.90;;;;;;5069731;28;20028;-58
2022/07/17 03:00:15;;;;;;;7.68;2.60;;;11.30;99.90;;;;;;5063452;28;20107;-59
2022/07/17 03:02:47;;;;;;;3.97;2.33;;;11.30;99.90;;;;;;5068972;28;20514;-58
2022/07/17 03:05:15;;;;;;;4.07;2.47;;;11.30;99.90;;;;;;5047418;28;20025;-59
2022/07/17 03:07:41;;;;;;;3.38;1.83;;;11.30;99.90;;;;;;5069855;28;20045;-59
2022/07/17 03:10:08;;;;;;;5.03;2.30;;;11.40;99.90;;;;;;5062529;28;20029;-57
2022/07/17 03:12:34;;;;;;;4.55;1.90;;;11.40;99.90;;;;;;5068554;28;20021;-58
2022/07/17 03:15:00;;;;;;;3.85;2.40;;;11.50;99.90;;;;;;5069006;28;20029;-58
2022/07/17 03:17:25;;;;;;;4.80;2.13;;;11.50;99.90;;;;;;5067283;28;20029;-59
2022/07/17 03:19:52;;;;;;;2.53;1.88;;;11.50;99.90;;;;;;5067356;28;20020;-56
2022/07/17 03:22:17;;;;;;;4.90;2.25;;;11.50;99.90;;;;;;5058299;28;20057;-58
2022/07/17 03:24:43;;;;;;;4.35;2.22;;;11.50;99.90;;;;;;5066390;28;20017;-60
2022/07/17 03:27:09;;;;;;;5.55;2.30;;;11.60;99.90;;;;;;5051951;28;20148;-57
2022/07/17 03:29:34;;;;;;;2.80;1.90;;;11.60;99.90;;;;;;5069350;28;20469;-60
2022/07/17 03:32:00;;;;;;;3.88;2.03;;;11.60;99.90;;;;;;5065210;28;20505;-57
2022/07/17 03:34:26;;;;;;;2.72;1.48;;;11.60;99.90;;;;;;5069168;28;20126;-56
2022/07/17 03:36:51;;;;;;;4.15;2.20;;;11.60;99.90;;;;;;5067672;28;20048;-60
2022/07/17 03:39:17;;;;;;;4.93;2.00;;;11.60;99.90;;;;;;5052199;28;20031;-60
2022/07/17 03:41:43;;;;;;;5.60;2.05;;;11.60;99.90;;;;;;5061091;28;20032;-58
2022/07/17 03:44:09;;;;;;;6.47;2.50;;;11.60;99.90;;;;;;5059848;28;20029;-58
2022/07/17 03:46:34;;;;;;;3.33;1.90;;;11.60;99.90;;;;;;5062199;28;20032;-60
2022/07/17 03:49:00;;;;;;;5.35;2.20;;;11.70;99.90;;;;;;5064727;28;20067;-58
2022/07/17 03:51:26;;;;;;;7.85;2.22;;;11.60;99.90;;;;;;5063027;28;20032;-58
2022/07/17 03:53:52;;;;;;;4.53;2.30;;;11.70;99.90;;;;;;5069516;28;20050;-60
2022/07/17 03:56:18;;;;;;;6.55;2.25;;;11.70;99.90;;;;;;5068352;28;20357;-58
2022/07/17 03:58:43;;;;;;;6.53;2.45;;;11.70;99.90;;;;;;5043928;28;20440;-61
2022/07/17 04:01:09;;;;;;;5.03;1.92;;;11.80;99.90;;;;;;5067166;28;20142;-60
2022/07/17 04:03:35;;;;;;;4.57;1.75;;;11.80;99.90;;;;;;5064001;28;20040;-61
2022/07/17 04:06:01;;;;;;;5.32;2.20;;;11.90;99.90;;;;;;5066419;28;20024;-56
2022/07/17 04:08:26;;;;;;;4.55;1.88;;;11.90;99.90;;;;;;5047284;28;20060;-58
2022/07/17 04:10:52;;;;;;;3.85;1.70;;;11.90;99.90;;;;;;5064000;28;20406;-57
2022/07/17 04:13:17;;;;;;;5.20;1.90;;;12.00;99.90;;;;;;5066839;28;20101;-58
2022/07/17 04:15:49;;;;;;;4.55;1.80;;;12.10;99.90;;;;;;5061047;28;20032;-58
2022/07/17 04:18:20;;;;;;;7.95;1.92;;;12.00;99.90;;;;;;5059703;28;20060;-58
2022/07/17 04:20:50;;;;;;;6.18;1.73;;;12.10;99.90;;;;;;5057516;28;20032;-58
2022/07/17 04:23:16;;;;;;;5.50;2.08;;;12.10;99.90;;;;;;5042524;28;20494;-57
2022/07/17 04:25:43;;;;;;;4.57;2.00;;;12.20;99.90;;;;;;5038902;28;20052;-58
2022/07/17 04:28:09;;;;;;;7.20;1.80;;;12.20;99.90;;;;;;5065085;28;20033;-59
2022/07/17 04:30:35;;;;;;;8.32;1.73;;;12.20;99.90;;;;;;5063237;28;20028;-60
2022/07/17 04:33:01;;;;;;;2.70;1.88;;;12.30;99.90;;;;;;5064434;28;20029;-59
2022/07/17 04:35:27;;;;;;;4.13;1.80;;;12.30;99.90;;;;;;5056497;28;20090;-58
2022/07/17 04:37:52;;;;;;;6.10;1.80;;;12.30;99.90;;;;;;5057854;28;20114;-58
2022/07/17 04:40:19;;;;;;;4.20;1.73;;;12.40;99.90;;;;;;5067876;28;20594;-56
2022/07/17 04:42:45;;;;;;;6.43;2.15;;;12.40;99.90;;;;;;5066414;28;20016;-58
2022/07/17 04:45:11;;;;;;;5.60;2.33;;;12.50;99.90;;;;;;5057941;28;20035;-59
2022/07/17 04:47:36;;;;;;;6.55;2.10;;;12.50;99.90;;;;;;5063205;28;20025;-59
2022/07/17 04:50:03;;;;;;;7.28;1.83;;;12.50;99.90;;;;;;5067636;28;20450;-59
2022/07/17 04:52:28;;;;;;;4.10;2.65;;;12.60;99.90;;;;;;5062091;28;20021;-57
2022/07/17 04:54:54;;;;;;;4.97;2.40;;;12.60;99.90;;;;;;5063369;28;20039;-60
2022/07/17 04:57:19;;;;;;;3.88;1.60;;;12.70;99.90;;;;;;5065210;28;20021;-60
2022/07/17 04:59:45;;;;;;;4.57;1.60;;;12.80;99.90;;;;;;5063912;28;20394;-59
2022/07/17 05:02:11;;;;;;;3.53;1.42;;;12.80;99.90;;;;;;5059937;28;20028;-60
2022/07/17 05:04:36;;;;;;;4.18;1.65;;;12.90;99.90;;;;;;5047421;28;20062;-55
2022/07/17 05:07:02;;;;;;;4.40;1.88;;;12.90;99.90;;;;;;5057286;28;20094;-58
2022/07/17 05:09:28;;;;;;;6.60;2.25;;;13.00;99.90;;;;;;5061516;28;20421;-56
2022/07/17 05:11:53;;;;;;;3.10;1.50;;;13.10;99.90;;;;;;5063183;28;20040;-60
2022/07/17 05:14:19;;;;;;;3.63;2.13;;;13.10;99.90;;;;;;5059800;28;20438;-58
2022/07/17 05:16:44;;;;;;;8.13;2.42;;;13.10;99.90;;;;;;5063511;28;20054;-56
2022/07/17 05:19:10;;;;;;;4.43;1.60;;;13.20;99.90;;;;;;5065609;28;20413;-60
2022/07/17 05:21:36;;;;;;;4.40;1.73;;;13.20;99.90;;;;;;5053727;28;20036;-59
2022/07/17 05:24:01;;;;;;;4.28;1.90;;;13.30;99.90;;;;;;5070910;28;20056;-60
2022/07/17 05:26:27;;;;;;;5.38;1.77;;;13.30;99.90;;;;;;5063948;28;20028;-58
2022/07/17 05:28:53;;;;;;;4.90;2.25;;;13.30;99.90;;;;;;5063801;28;20023;-58
2022/07/17 05:31:18;;;;;;;4.47;1.88;;;13.40;99.90;;;;;;5061955;28;20074;-59
2022/07/17 05:33:44;;;;;;;5.28;1.85;;;13.40;99.90;;;;;;5054325;28;20021;-60
2022/07/17 05:36:10;;;;;;;2.75;1.77;;;13.40;99.90;;;;;;5069229;28;20040;-59
2022/07/17 05:38:35;;;;;;;5.78;1.90;;;13.50;99.90;;;;;;5070499;28;20086;-60
2022/07/17 05:41:01;;;;;;;4.63;1.90;;;13.60;99.90;;;;;;5070418;28;20565;-59
2022/07/17 05:43:26;;;;;;;7.70;2.65;;;13.60;99.90;;;;;;5066752;28;20028;-57
2022/07/17 05:45:57;;;;;;;6.07;2.13;;;13.70;99.90;;;;;;5071222;28;20445;-59
2022/07/17 05:48:23;;;;;;;5.18;1.95;;;13.80;99.90;;;;;;5070988;28;20356;-59
2022/07/17 05:50:48;;;;;;;1.85;1.38;;;13.90;99.90;;;;;;5070997;28;20074;-58
2022/07/17 05:53:14;;;;;;;6.07;1.92;;;14.00;99.90;;;;;;5064671;28;20033;-57
2022/07/17 05:55:40;;;;;;;6.90;1.98;;;14.00;99.90;;;;;;5069731;28;20029;-60
2022/07/17 05:58:06;;;;;;;2.20;1.70;;;14.00;99.90;;;;;;5069538;28;20101;-59
2022/07/17 06:00:32;;;;;;;5.57;1.90;;;14.00;99.90;;;;;;5061457;28;20491;-60
2022/07/17 06:02:57;;;;;;;5.47;1.55;;;14.00;99.90;;;;;;5070752;28;20466;-60
2022/07/17 06:05:25;;;;;;;4.85;2.13;;;14.10;99.90;;;;;;5068370;28;20399;-59
2022/07/17 06:07:51;;;;;;;4.35;1.80;;;14.10;99.90;;;;;;5070833;28;20025;-61
2022/07/17 06:10:17;;;;;;;3.80;1.73;;;14.10;99.90;;;;;;5069090;28;20094;-60
2022/07/17 06:12:43;;;;;;;3.63;1.73;;;14.20;99.90;;;;;;5070667;28;20099;-61
2022/07/17 06:15:09;;;;;;;5.68;2.03;;;14.30;99.90;;;;;;5056103;28;20032;-60
2022/07/17 06:17:34;;;;;;;6.03;2.00;;;14.50;99.90;;;;;;5071350;28;20028;-60
2022/07/17 06:20:00;;;;;;;5.20;1.45;;;14.60;99.90;;;;;;5069693;28;20047;-60
2022/07/17 06:22:26;;;;;;;2.58;1.50;;;14.70;99.90;;;;;;5058573;28;20139;-61
2022/07/17 06:24:51;;;;;;;6.30;1.80;;;14.80;99.90;;;;;;5063538;28;20033;-60
2022/07/17 06:27:17;;;;;;;5.65;1.65;;;14.90;99.90;;;;;;5059313;28;20033;-59
2022/07/17 06:29:42;;;;;;;3.95;1.58;;;15.00;99.90;;;;;;5061758;28;20056;-60
2022/07/17 06:32:08;;;;;;;5.10;1.63;;;15.10;99.90;;;;;;5070394;28;20036;-61
2022/07/17 06:34:34;;;;;;;2.72;1.23;;;15.20;99.90;;;;;;5066621;28;20040;-61
2022/07/17 06:36:59;;;;;;;4.95;2.00;;;15.30;99.90;;;;;;5065975;28;20036;-61
2022/07/17 06:39:25;;;;;;;4.63;1.60;;;15.40;99.90;;;;;;5066974;28;20379;-60
2022/07/17 06:41:50;;;;;;;3.22;1.65;;;15.40;99.90;;;;;;5063578;28;20103;-60
2022/07/17 06:44:16;;;;;;;3.55;1.60;;;15.50;99.90;;;;;;5060016;28;20029;-60
2022/07/17 06:46:42;;;;;;;2.53;1.48;;;15.60;99.90;;;;;;5066827;28;20066;-59
2022/07/17 06:49:07;;;;;;;5.93;1.58;;;15.70;99.90;;;;;;5070414;28;20104;-61
2022/07/17 06:51:33;;;;;;;3.60;1.55;;;15.80;99.90;;;;;;5049360;28;20394;-60
2022/07/17 06:53:58;;;;;;;5.65;1.90;;;15.80;99.90;;;;;;5043429;28;20465;-61
2022/07/17 06:56:24;;;;;;;6.18;1.40;;;15.80;99.90;;;;;;5099313;22;20468;-61
2022/07/17 06:58:49;;;;;;;8.13;2.00;;;15.80;99.90;;;;;;5074661;28;20482;-63
2022/07/17 07:01:15;;;;;;;5.90;1.90;;;15.80;99.90;;;;;;5069790;28;20055;-62
2022/07/17 07:03:41;;;;;;;3.97;1.30;;;15.90;99.90;;;;;;5050507;28;20032;-61
2022/07/17 07:06:06;;;;;;;2.85;1.35;;;16.00;99.90;;;;;;5081262;28;20020;-62
2022/07/17 07:08:33;;;;;;;4.22;2.03;;;16.20;99.90;;;;;;5087695;28;20103;-62
2022/07/17 07:11:00;;;;;;;3.10;1.42;;;16.40;99.90;;;;;;5084035;28;20039;-63
2022/07/17 07:13:25;;;;;;;3.35;1.52;;;16.50;99.90;;;;;;5087798;28;20055;-61
2022/07/17 07:15:51;;;;;;;2.20;1.50;;;16.80;99.90;;;;;;5078277;28;20525;-61
2022/07/17 07:18:17;;;;;;;3.50;1.40;;;16.90;99.90;;;;;;5072884;28;20030;-62
2022/07/17 07:20:42;;;;;;;2.72;1.20;;;17.00;99.90;;;;;;5086221;28;20049;-61
2022/07/17 07:23:08;;;;;;;9.25;1.55;;;17.20;99.90;;;;;;5088646;28;20482;-64
2022/07/17 07:25:34;;;;;;;5.32;1.25;;;17.40;99.90;;;;;;5085735;28;20035;-62
2022/07/17 07:27:59;;;;;;;1.50;0.98;;;17.40;99.90;;;;;;5088013;28;20040;-61
2022/07/17 07:30:25;;;;;;;4.65;1.33;;;17.50;99.90;;;;;;5084903;28;20021;-61
2022/07/17 07:32:51;;;;;;;4.25;1.58;;;17.60;99.90;;;;;;5080160;28;20410;-63
2022/07/17 07:35:16;;;;;;;8.02;1.23;;;17.60;99.90;;;;;;5089958;28;20016;-61
2022/07/17 07:37:42;;;;;;;2.42;1.10;;;17.80;99.90;;;;;;5068396;28;20024;-62
2022/07/17 07:40:09;;;;;;;4.25;1.10;;;17.90;99.90;;;;;;5078558;28;20048;-63
2022/07/17 07:42:34;;;;;;;5.10;1.10;;;17.90;99.90;;;;;;5085058;28;20051;-63
2022/07/17 07:45:00;;;;;;;2.97;1.42;;;17.80;99.90;;;;;;5087691;28;20537;-63
2022/07/17 07:47:25;;;;;;;3.28;1.23;;;17.80;99.90;;;;;;5084732;28;20331;-64
2022/07/17 07:49:51;;;;;;;2.85;1.20;;;17.80;99.90;;;;;;5086770;28;20048;-63
2022/07/17 07:52:16;;;;;;;7.47;1.75;;;17.80;99.90;;;;;;5089918;28;20028;-64
2022/07/17 07:54:43;;;;;;;3.30;1.48;;;18.00;99.90;;;;;;5080323;28;20437;-63
2022/07/17 07:57:09;;;;;;;4.18;1.38;;;18.20;99.90;;;;;;5087590;28;20032;-64
2022/07/17 07:59:35;;;;;;;5.05;2.20;;;18.40;99.90;;;;;;5085292;28;20500;-63
2022/07/17 08:02:01;;;;;;;4.25;1.70;;;18.60;99.90;;;;;;5087256;28;20036;-64
2022/07/17 08:04:27;;;;;;;6.05;1.73;;;18.80;99.90;;;;;;5084218;28;20024;-63
2022/07/17 08:06:53;;;;;;;3.50;1.30;;;19.00;99.90;;;;;;5079548;28;20012;-65
2022/07/17 08:09:18;;;;;;;3.42;1.30;;;19.30;99.90;;;;;;5083462;28;20496;-64
2022/07/17 08:11:44;;;;;;;1.75;1.05;;;19.40;99.90;;;;;;5067302;28;20012;-64
2022/07/17 08:14:09;;;;;;;4.72;1.23;;;19.20;99.90;;;;;;5087086;28;20035;-64
2022/07/17 08:16:35;;;;;;;4.50;1.10;;;19.10;99.90;;;;;;5084809;28;20020;-65
2022/07/17 08:19:01;;;;;;;4.53;1.67;;;19.00;99.90;;;;;;5085227;28;20111;-65
2022/07/17 08:21:28;;;;;;;2.92;1.30;;;18.90;99.90;;;;;;5087773;28;20689;-64
2022/07/17 08:23:53;;;;;;;2.72;1.00;;;19.10;99.90;;;;;;5085729;28;20020;-64
2022/07/17 08:26:19;;;;;;;3.00;1.98;;;19.10;99.90;;;;;;5083522;28;20379;-61
2022/07/17 08:28:45;;;;;;;2.90;1.38;;;19.00;99.90;;;;;;5089831;28;20016;-62
2022/07/17 08:31:10;;;;;;;2.97;1.67;;;19.00;99.90;;;;;;5077479;28;20512;-66
2022/07/17 08:33:36;;;;;;;4.43;1.23;;;19.30;99.90;;;;;;5088130;28;20020;-67
2022/07/17 08:36:01;;;;;;;4.20;1.60;;;19.60;99.90;;;;;;5068390;28;20036;-65
2022/07/17 08:38:27;;;;;;;3.28;1.25;;;19.70;99.90;;;;;;5087561;28;20477;-67
2022/07/17 08:40:54;;;;;;;2.97;1.40;;;19.80;99.90;;;;;;5068740;28;20020;-63
2022/07/17 08:43:20;;;;;;;3.05;1.48;;;19.60;99.90;;;;;;5086796;28;20013;-63
2022/07/17 08:45:48;;;;;;;4.95;1.30;;;19.50;99.90;;;;;;5087777;28;20051;-66
2022/07/17 08:48:15;;;;;;;3.58;1.45;;;19.50;99.90;;;;;;5062264;28;20131;-68
2022/07/17 08:50:41;;;;;;;3.42;1.70;;;19.50;99.90;;;;;;5082043;28;20024;-64
2022/07/17 08:53:07;;;;;;;3.53;1.50;;;19.80;99.90;;;;;;5085251;28;20053;-67
2022/07/17 08:55:33;;;;;;;2.58;1.50;;;20.10;99.90;;;;;;5084895;28;20042;-64
2022/07/17 08:57:59;;;;;;;1.92;0.95;;;20.40;99.90;;;;;;5087661;28;20035;-66
2022/07/17 09:00:25;;;;;;;1.27;0.65;;;20.40;99.90;;;;;;5064891;28;20033;-64
2022/07/17 09:03:05;;;;;;;3.40;1.10;;;20.40;99.90;;;;;;5088895;28;20020;-63
2022/07/17 09:05:38;;;;;;;7.15;1.48;;;20.60;99.30;;;;;;5082129;28;20505;-64
2022/07/17 09:08:07;;;;;;;4.72;1.40;;;20.80;99.90;;;;;;5088418;28;20576;-64
2022/07/17 09:10:44;;;;;;;7.88;1.33;;;21.10;99.90;;;;;;5065135;28;20111;-63
2022/07/17 09:13:30;;;;;;;2.80;1.50;;;21.40;99.10;;;;;;5087225;28;20500;-62
2022/07/17 09:15:58;;;;;;;3.55;1.20;;;21.30;98.20;;;;;;5076592;28;20097;-66
2022/07/17 09:18:25;;;;;;;4.07;1.05;;;21.10;98.30;;;;;;5086408;28;20028;-65
2022/07/17 09:20:53;;;;;;;5.55;1.17;;;21.00;98.30;;;;;;5083442;28;20135;-62
2022/07/17 09:23:20;;;;;;;5.57;1.42;;;21.10;98.40;;;;;;5073304;28;20048;-64
2022/07/17 09:25:48;;;;;;;2.97;1.40;;;21.20;98.20;;;;;;5082963;28;20028;-63
2022/07/17 09:28:15;;;;;;;2.22;1.25;;;21.40;97.30;;;;;;5084047;28;20044;-63
2022/07/17 09:30:44;;;;;;;6.22;1.35;;;21.60;96.00;;;;;;5083163;28;20021;-63
2022/07/17 09:33:28;;;;;;;6.18;1.15;;;21.80;97.30;;;;;;5081832;28;20040;-62
2022/07/17 09:35:56;;;;;;;2.80;1.00;;;21.70;96.90;;;;;;5083688;28;20728;-63
2022/07/17 09:38:31;;;;;;;4.10;1.38;;;21.50;96.90;;;;;;5084656;28;20130;-64
2022/07/17 09:41:18;;;;;;;4.90;1.60;;;21.50;97.30;;;;;;5087309;28;20032;-63
2022/07/17 09:43:57;;;;;;;2.03;1.27;;;21.50;97.50;;;;;;5067818;28;20119;-64
2022/07/17 09:46:32;;;;;;;2.50;1.30;;;21.70;97.60;;;;;;5069675;28;20024;-62
2022/07/17 09:48:59;;;;;;;2.92;0.90;;;21.80;96.20;;;;;;5082250;28;20039;-62
2022/07/17 09:51:29;;;;;;;5.63;1.50;;;21.80;97.20;;;;;;5087501;28;20527;-63
2022/07/17 09:53:57;;;;;;;3.33;0.82;;;21.90;96.10;;;;;;5084397;28;20012;-63
2022/07/17 09:56:25;;;;;;;1.75;0.88;;;22.00;95.40;;;;;;5076436;28;20111;-63
2022/07/17 09:59:13;;;;;;;2.28;1.13;;;22.10;98.10;;;;;;5081092;28;20019;-65
2022/07/17 10:01:41;;;;;;;3.05;0.93;;;22.20;97.20;;;;;;5075358;28;20041;-64
2022/07/17 10:04:07;;;;;;;2.53;1.13;;;22.00;95.60;;;;;;5081629;28;20103;-66
2022/07/17 10:06:33;;;;;;;3.00;1.17;;;21.90;95.20;;;;;;5080391;28;20115;-62
2022/07/17 10:08:59;;;;;;;3.33;1.23;;;22.00;96.80;;;;;;5084849;28;20115;-64
2022/07/17 10:11:29;;;;;;;2.25;1.02;;;22.10;95.90;;;;;;5087971;28;20165;-63
2022/07/17 10:14:00;;;;;;;3.42;1.05;;;22.20;96.50;;;;;;5081219;28;20020;-63
2022/07/17 10:16:28;;;;;;;0.65;0.60;;;22.20;95.10;;;;;;5069082;28;20020;-63
2022/07/17 10:18:54;;;;;;;2.60;1.05;;;22.00;95.60;;;;;;5086511;28;20103;-63
2022/07/17 10:21:21;;;;;;;2.67;1.10;;;22.00;96.10;;;;;;5090272;28;20114;-64
2022/07/17 10:23:53;;;;;;;3.25;0.90;;;21.90;95.00;;;;;;5087816;28;20020;-64
2022/07/17 10:26:32;;;;;;;6.07;1.33;;;21.80;94.30;;;;;;5080887;28;20102;-64
2022/07/17 10:28:58;;;;;;;4.18;1.30;;;21.60;94.80;;;;;;5086239;28;20384;-66
2022/07/17 10:31:25;;;;;;;5.53;1.30;;;21.40;95.10;;;;;;5082821;28;20033;-64
2022/07/17 10:34:05;;;;;;;3.72;1.00;;;21.10;95.50;;;;;;5091072;28;20482;-64
2022/07/17 10:36:39;;;;;;;2.47;1.05;;;21.10;96.20;;;;;;5082049;28;20455;-65
2022/07/17 10:39:16;;;;;;;1.30;0.90;;;21.00;95.80;;;;;;5071845;28;20028;-64
2022/07/17 10:41:54;;;;;;;2.45;0.82;;;21.10;96.10;;;;;;5081856;28;20028;-63
2022/07/17 10:44:26;;;;;;;2.80;0.93;;;21.10;95.40;;;;;;5076406;28;20016;-64
2022/07/17 10:46:52;;;;;;;1.33;0.75;;;21.20;95.60;;;;;;5066202;28;20486;-63
2022/07/17 10:49:18;;;;;;;2.90;0.77;;;21.30;95.60;;;;;;5070080;28;20074;-65
2022/07/17 10:51:45;;;;;;;5.85;1.48;;;21.40;95.20;;;;;;5089643;28;20046;-64
2022/07/17 10:54:11;;;;;;;2.13;0.80;;;21.40;94.90;;;;;;5083642;28;20424;-63
2022/07/17 10:56:40;;;;;;;2.35;0.90;;;21.40;96.10;;;;;;5090003;28;20036;-63
2022/07/17 10:59:06;;;;;;;2.20;0.82;;;21.50;97.90;;;;;;5082912;28;20498;-63
2022/07/17 11:01:32;;;;;;;3.03;1.10;;;21.60;96.70;;;;;;5088569;28;20077;-61
2022/07/17 11:04:00;;;;;;;2.25;1.00;;;21.70;95.70;;;;;;5081063;28;20054;-67
2022/07/17 11:06:30;;;;;;;4.05;1.00;;;21.80;95.60;;;;;;5068448;28;20104;-66
2022/07/17 11:09:08;;;;;;;2.25;0.73;;;21.40;95.00;;;;;;5061005;28;20016;-64
2022/07/17 11:11:40;;;;;;;2.78;1.20;;;21.50;95.60;;;;;;5068736;28;20598;-65
2022/07/17 11:14:13;;;;;;;2.33;1.00;;;21.70;95.30;;;;;;5081011;28;20110;-65
2022/07/17 11:16:45;;;;;;;2.30;0.95;;;21.70;94.50;;;;;;5073062;28;20410;-64
2022/07/17 11:19:11;;;;;;;2.63;0.80;;;21.80;94.30;;;;;;5080685;28;20478;-63
2022/07/17 11:21:48;;;;;;;2.45;1.33;;;21.80;94.30;;;;;;5077581;28;20020;-64
2022/07/17 11:24:13;;;;;;;2.25;0.77;;;21.80;95.20;;;;;;5087507;28;20012;-62
2022/07/17 11:26:39;;;;;;;1.67;0.63;;;21.80;95.10;;;;;;5077176;28;20363;-63
2022/07/17 11:29:05;;;;;;;5.55;0.90;;;21.80;94.60;;;;;;5070022;28;20119;-65
2022/07/17 11:31:30;;;;;;;2.17;0.77;;;21.80;94.70;;;;;;5083703;28;20050;-64
2022/07/17 11:34:05;;;;;;;3.03;1.00;;;21.80;94.60;;;;;;5090174;28;20028;-63
2022/07/17 11:36:49;;;;;;;2.30;0.73;;;21.90;94.70;;;;;;5086330;28;20539;-62
2022/07/17 11:39:18;;;;;;;3.80;1.00;;;21.90;93.70;;;;;;5056120;28;20028;-66
2022/07/17 11:41:47;;;;;;;2.30;1.30;;;21.80;94.00;;;;;;5066759;28;20024;-64
2022/07/17 11:44:17;;;;;;;4.43;1.10;;;21.70;94.20;;;;;;5069571;28;20402;-64
2022/07/17 11:46:45;;;;;;;4.45;1.00;;;21.70;94.80;;;;;;5083596;28;20063;-64
2022/07/17 11:49:11;;;;;;;2.13;1.00;;;21.80;94.10;;;;;;5086935;28;20083;-64
2022/07/17 11:51:43;;;;;;;2.30;1.08;;;21.70;94.10;;;;;;5079906;28;20158;-63
2022/07/17 11:54:10;;;;;;;1.77;0.80;;;21.70;93.90;;;;;;5067702;28;20028;-64
2022/07/17 11:56:36;;;;;;;1.88;0.82;;;21.70;94.50;;;;;;5070260;28;20108;-65
2022/07/17 11:59:02;;;;;;;2.85;0.88;;;21.80;94.10;;;;;;5085083;28;20486;-63
2022/07/17 12:01:30;;;;;;;4.47;1.27;;;21.90;95.80;;;;;;5069167;28;20127;-64
2022/07/17 12:03:59;;;;;;;4.50;1.00;;;22.00;93.70;;;;;;5084270;28;20008;-63
2022/07/17 12:06:26;;;;;;;4.10;1.17;;;22.10;93.20;;;;;;5080513;28;20116;-63
2022/07/17 12:08:53;;;;;;;2.47;0.73;;;22.10;94.80;;;;;;5072393;28;20032;-63
2022/07/17 12:11:19;;;;;;;1.65;0.60;;;22.20;94.60;;;;;;5083686;28;20059;-62
2022/07/17 12:13:46;;;;;;;2.13;0.88;;;22.30;94.10;;;;;;5088376;28;20113;-63
2022/07/17 12:16:24;;;;;;;3.60;0.75;;;22.10;92.90;;;;;;5067248;28;20055;-66
2022/07/17 12:19:08;;;;;;;2.95;1.45;;;21.80;93.90;;;;;;5087284;28;20371;-64
2022/07/17 12:22:01;;;;;;;0.60;0.52;;;21.80;94.00;;;;;;5083086;28;20031;-63
2022/07/17 12:24:29;;;;;;;4.25;1.48;;;21.80;96.00;;;;;;5073325;28;20663;-62
2022/07/17 12:26:57;;;;;;;6.25;1.02;;;22.00;94.10;;;;;;5082863;28;20420;-63
2022/07/17 12:29:24;;;;;;;1.42;0.50;;;22.00;93.50;;;;;;5077681;28;20016;-64
2022/07/17 12:32:15;;;;;;;3.70;0.70;;;22.20;93.90;;;;;;5084753;28;20205;-64
2022/07/17 12:34:47;;;;;;;1.25;0.77;;;22.20;93.20;;;;;;5080917;28;20496;-65
2022/07/17 12:37:17;;;;;;;1.50;0.60;;;22.30;93.60;;;;;;5063057;28;20122;-64
2022/07/17 12:39:45;;;;;;;5.25;1.00;;;22.30;93.50;;;;;;5066896;28;20103;-66
2022/07/17 12:42:11;;;;;;;2.60;0.98;;;22.40;93.50;;;;;;5080851;28;20058;-65
2022/07/17 12:44:37;;;;;;;0.73;0.68;;;22.50;92.50;;;;;;5084536;28;20055;-64
2022/07/17 12:47:03;;;;;;;2.08;0.95;;;22.50;93.00;;;;;;5080967;28;20059;-64